sensor_id;sensor_type;location;lat;lon;timestamp;pressure;altitude;pressure_sealevel;temperature;humidity
39197;BME280;42889;51.112;13.772;2022-11-24T00:01:28;98250.31;;;-1.95;100.00
39197;BME280;42889;51.112;13.772;2022-11-24T00:04:01;98257.41;;;-1.95;100.00
39197;BME280;42889;51.112;13.772;2022-11-24T00:06:30;98251.81;;;-1.91;100.00
39197;BME280;42889;51.112;13.772;2022-11-24T00:08:58;98250.56;;;-1.85;100.00
39197;BME280;42889;51.112;13.772;2022-11-24T00:11:27;98248.53;;;-1.94;100.00
39197;BME280;42889;51.112;13.772;2022-11-24T00:13:55;98252.13;;;-1.95;100.00
39197;BME280;42889;51.112;13.772;2022-11-24T00:16:28;98253.97;;;-2.10;100.00
39197;BME280;42889;51.112;13.772;2022-11-24T00:18:57;98251.78;;;-2.03;100.00
39197;BME280;42889;51.112;13.772;2022-11-24T00:21:27;98244.19;;;-2.08;100.00
39197;BME280;42889;51.112;13.772;2022-11-24T00:23:55;98243.94;;;-2.18;100.00
39197;BME280;42889;51.112;13.772;2022-11-24T00:26:25;98248.06;;;-2.14;100.00
39197;BME280;42889;51.112;13.772;2022-11-24T00:28:54;98252.34;;;-2.25;100.00
39197;BME280;42889;51.112;13.772;2022-11-24T00:31:27;98258.91;;;-2.18;100.00
39197;BME280;42889;51.112;13.772;2022-11-24T00:33:56;98263.34;;;-2.19;100.00
39197;BME280;42889;51.112;13.772;2022-11-24T00:36:27;98264.09;;;-2.04;100.00
39197;BME280;42889;51.112;13.772;2022-11-24T00:38:59;98257.59;;;-1.98;100.00
39197;BME280;42889;51.112;13.772;2022-11-24T00:41:27;98267.22;;;-1.84;100.00
39197;BME280;42889;51.112;13.772;2022-11-24T00:43:55;98263.22;;;-1.90;100.00
39197;BME280;42889;51.112;13.772;2022-11-24T00:46:23;98262.97;;;-1.87;100.00
39197;BME280;42889;51.112;13.772;2022-11-24T00:49:07;98265.16;;;-2.06;100.00
39197;BME280;42889;51.112;13.772;2022-11-24T00:51:48;98262.66;;;-2.08;100.00
39197;BME280;42889;51.112;13.772;2022-11-24T00:54:16;98274.44;;;-2.14;100.00
39197;BME280;42889;51.112;13.772;2022-11-24T00:57:17;98274.84;;;-2.20;100.00
39197;BME280;42889;51.112;13.772;2022-11-24T00:59:45;98273.81;;;-2.31;100.00
39197;BME280;42889;51.112;13.772;2022-11-24T01:02:12;98270.72;;;-2.24;100.00
39197;BME280;42889;51.112;13.772;2022-11-24T01:05:00;98288.22;;;-2.23;100.00
39197;BME280;42889;51.112;13.772;2022-11-24T01:07:30;98282.69;;;-2.32;100.00
39197;BME280;42889;51.112;13.772;2022-11-24T01:10:12;98279.94;;;-2.31;100.00
39197;BME280;42889;51.112;13.772;2022-11-24T01:12:39;98274.78;;;-2.32;100.00
39197;BME280;42889;51.112;13.772;2022-11-24T01:15:07;98283.34;;;-2.29;100.00
39197;BME280;42889;51.112;13.772;2022-11-24T01:17:36;98274.91;;;-1.94;100.00
39197;BME280;42889;51.112;13.772;2022-11-24T01:20:05;98291.66;;;-1.95;100.00
39197;BME280;42889;51.112;13.772;2022-11-24T01:23:02;98287.47;;;-1.85;100.00
39197;BME280;42889;51.112;13.772;2022-11-24T01:25:31;98285.78;;;-1.86;100.00
39197;BME280;42889;51.112;13.772;2022-11-24T01:27:59;98290.13;;;-1.85;100.00
39197;BME280;42889;51.112;13.772;2022-11-24T01:30:27;98296.13;;;-1.83;100.00
39197;BME280;42889;51.112;13.772;2022-11-24T01:32:57;98310.19;;;-1.70;100.00
39197;BME280;42889;51.112;13.772;2022-11-24T01:35:24;98308.41;;;-1.69;100.00
39197;BME280;42889;51.112;13.772;2022-11-24T01:38:20;98308.09;;;-1.65;100.00
39197;BME280;42889;51.112;13.772;2022-11-24T01:41:08;98314.22;;;-1.64;100.00
39197;BME280;42889;51.112;13.772;2022-11-24T01:43:36;98315.78;;;-1.49;100.00
39197;BME280;42889;51.112;13.772;2022-11-24T01:48:48;98318.66;;;-1.39;100.00
39197;BME280;42889;51.112;13.772;2022-11-24T01:51:22;98325.75;;;-1.27;100.00
39197;BME280;42889;51.112;13.772;2022-11-24T01:54:08;98314.75;;;-1.46;100.00
39197;BME280;42889;51.112;13.772;2022-11-24T01:56:53;98326.16;;;-1.46;100.00
39197;BME280;42889;51.112;13.772;2022-11-24T01:59:21;98326.88;;;-1.56;100.00
39197;BME280;42889;51.112;13.772;2022-11-24T02:02:05;98320.63;;;-1.68;100.00
39197;BME280;42889;51.112;13.772;2022-11-24T02:04:34;98327.72;;;-1.56;100.00
39197;BME280;42889;51.112;13.772;2022-11-24T02:07:04;98324.78;;;-1.64;100.00
39197;BME280;42889;51.112;13.772;2022-11-24T02:09:39;98327.72;;;-1.56;100.00
39197;BME280;42889;51.112;13.772;2022-11-24T02:12:23;98333.16;;;-1.84;100.00
39197;BME280;42889;51.112;13.772;2022-11-24T02:14:55;98332.03;;;-1.68;100.00
39197;BME280;42889;51.112;13.772;2022-11-24T02:17:22;98330.06;;;-1.91;100.00
39197;BME280;42889;51.112;13.772;2022-11-24T02:20:05;98328.47;;;-1.94;100.00
39197;BME280;42889;51.112;13.772;2022-11-24T02:22:38;98325.75;;;-1.92;100.00
39197;BME280;42889;51.112;13.772;2022-11-24T02:27:57;98331.41;;;-1.98;100.00
39197;BME280;42889;51.112;13.772;2022-11-24T02:30:26;98329.28;;;-2.06;100.00
39197;BME280;42889;51.112;13.772;2022-11-24T02:32:53;98333.84;;;-1.95;100.00
39197;BME280;42889;51.112;13.772;2022-11-24T02:35:22;98333.13;;;-1.97;100.00
39197;BME280;42889;51.112;13.772;2022-11-24T02:37:51;98333.00;;;-1.96;100.00
39197;BME280;42889;51.112;13.772;2022-11-24T02:40:56;98330.84;;;-2.03;100.00
39197;BME280;42889;51.112;13.772;2022-11-24T02:43:29;98337.38;;;-2.09;100.00
39197;BME280;42889;51.112;13.772;2022-11-24T02:45:58;98342.56;;;-2.07;100.00
39197;BME280;42889;51.112;13.772;2022-11-24T02:48:26;98340.97;;;-2.10;100.00
39197;BME280;42889;51.112;13.772;2022-11-24T02:50:54;98342.81;;;-1.98;100.00
39197;BME280;42889;51.112;13.772;2022-11-24T02:53:21;98345.28;;;-2.09;100.00
39197;BME280;42889;51.112;13.772;2022-11-24T02:55:49;98340.34;;;-2.14;100.00
39197;BME280;42889;51.112;13.772;2022-11-24T02:58:36;98344.84;;;-2.16;100.00
39197;BME280;42889;51.112;13.772;2022-11-24T03:01:04;98344.56;;;-2.25;100.00
39197;BME280;42889;51.112;13.772;2022-11-24T03:04:11;98350.56;;;-2.36;100.00
39197;BME280;42889;51.112;13.772;2022-11-24T03:06:39;98353.88;;;-2.47;100.00
39197;BME280;42889;51.112;13.772;2022-11-24T03:09:38;98353.09;;;-2.49;100.00
39197;BME280;42889;51.112;13.772;2022-11-24T03:12:22;98353.38;;;-2.53;100.00
39197;BME280;42889;51.112;13.772;2022-11-24T03:14:51;98352.16;;;-2.48;100.00
39197;BME280;42889;51.112;13.772;2022-11-24T03:20:58;98350.41;;;-2.61;100.00
39197;BME280;42889;51.112;13.772;2022-11-24T03:23:25;98348.13;;;-2.53;100.00
39197;BME280;42889;51.112;13.772;2022-11-24T03:25:52;98352.25;;;-2.49;100.00
39197;BME280;42889;51.112;13.772;2022-11-24T03:28:20;98352.66;;;-2.55;100.00
39197;BME280;42889;51.112;13.772;2022-11-24T03:30:47;98352.66;;;-2.55;100.00
39197;BME280;42889;51.112;13.772;2022-11-24T03:33:14;98357.06;;;-2.56;100.00
39197;BME280;42889;51.112;13.772;2022-11-24T03:35:41;98358.03;;;-2.57;100.00
39197;BME280;42889;51.112;13.772;2022-11-24T03:38:08;98364.13;;;-2.56;100.00
39197;BME280;42889;51.112;13.772;2022-11-24T03:40:36;98370.06;;;-2.67;100.00
39197;BME280;42889;51.112;13.772;2022-11-24T03:43:02;98367.53;;;-2.83;100.00
39197;BME280;42889;51.112;13.772;2022-11-24T03:45:30;98361.88;;;-2.77;100.00
39197;BME280;42889;51.112;13.772;2022-11-24T03:48:16;98361.59;;;-2.72;100.00
39197;BME280;42889;51.112;13.772;2022-11-24T03:51:02;98366.97;;;-2.74;100.00
39197;BME280;42889;51.112;13.772;2022-11-24T03:53:33;98366.41;;;-2.79;100.00
39197;BME280;42889;51.112;13.772;2022-11-24T03:56:13;98370.34;;;-2.72;100.00
39197;BME280;42889;51.112;13.772;2022-11-24T03:58:43;98382.28;;;-2.80;100.00
39197;BME280;42889;51.112;13.772;2022-11-24T04:01:14;98376.00;;;-2.63;100.00
39197;BME280;42889;51.112;13.772;2022-11-24T04:03:47;98381.34;;;-2.65;100.00
39197;BME280;42889;51.112;13.772;2022-11-24T04:06:18;98383.69;;;-2.60;100.00
39197;BME280;42889;51.112;13.772;2022-11-24T04:08:50;98380.31;;;-2.62;100.00
39197;BME280;42889;51.112;13.772;2022-11-24T04:11:18;98383.34;;;-2.83;100.00
39197;BME280;42889;51.112;13.772;2022-11-24T04:14:03;98386.81;;;-2.68;100.00
39197;BME280;42889;51.112;13.772;2022-11-24T04:16:40;98389.63;;;-2.71;100.00
39197;BME280;42889;51.112;13.772;2022-11-24T04:19:06;98392.47;;;-2.74;100.00
39197;BME280;42889;51.112;13.772;2022-11-24T04:21:34;98386.53;;;-2.63;100.00
39197;BME280;42889;51.112;13.772;2022-11-24T04:24:02;98394.78;;;-2.70;100.00
39197;BME280;42889;51.112;13.772;2022-11-24T04:26:32;98390.69;;;-2.74;100.00
39197;BME280;42889;51.112;13.772;2022-11-24T04:28:58;98395.66;;;-2.69;100.00
39197;BME280;42889;51.112;13.772;2022-11-24T04:31:25;98396.84;;;-2.75;100.00
39197;BME280;42889;51.112;13.772;2022-11-24T04:33:52;98402.50;;;-2.81;100.00
39197;BME280;42889;51.112;13.772;2022-11-24T04:36:20;98408.91;;;-2.71;100.00
39197;BME280;42889;51.112;13.772;2022-11-24T04:38:51;98410.03;;;-2.75;100.00
39197;BME280;42889;51.112;13.772;2022-11-24T04:41:40;98413.53;;;-2.74;100.00
39197;BME280;42889;51.112;13.772;2022-11-24T04:44:06;98422.84;;;-2.69;100.00
39197;BME280;42889;51.112;13.772;2022-11-24T04:46:35;98422.44;;;-2.77;100.00
39197;BME280;42889;51.112;13.772;2022-11-24T04:49:02;98430.25;;;-2.61;100.00
39197;BME280;42889;51.112;13.772;2022-11-24T04:51:29;98436.19;;;-2.57;100.00
39197;BME280;42889;51.112;13.772;2022-11-24T04:53:56;98428.19;;;-2.42;100.00
39197;BME280;42889;51.112;13.772;2022-11-24T04:56:22;98432.31;;;-2.38;100.00
39197;BME280;42889;51.112;13.772;2022-11-24T04:58:49;98431.94;;;-2.31;100.00
39197;BME280;42889;51.112;13.772;2022-11-24T05:01:16;98439.38;;;-2.24;100.00
39197;BME280;42889;51.112;13.772;2022-11-24T05:03:42;98438.59;;;-2.26;100.00
39197;BME280;42889;51.112;13.772;2022-11-24T05:06:09;98438.22;;;-2.05;100.00
39197;BME280;42889;51.112;13.772;2022-11-24T05:08:36;98443.97;;;-2.13;100.00
39197;BME280;42889;51.112;13.772;2022-11-24T05:11:05;98441.78;;;-2.06;100.00
39197;BME280;42889;51.112;13.772;2022-11-24T05:13:32;98443.94;;;-1.99;100.00
39197;BME280;42889;51.112;13.772;2022-11-24T05:15:58;98446.72;;;-1.88;100.00
39197;BME280;42889;51.112;13.772;2022-11-24T05:18:26;98453.22;;;-1.79;100.00
39197;BME280;42889;51.112;13.772;2022-11-24T05:20:54;98465.22;;;-1.61;100.00
39197;BME280;42889;51.112;13.772;2022-11-24T05:23:21;98460.00;;;-1.48;100.00
39197;BME280;42889;51.112;13.772;2022-11-24T05:25:47;98466.84;;;-1.45;100.00
39197;BME280;42889;51.112;13.772;2022-11-24T05:28:14;98467.59;;;-1.43;100.00
39197;BME280;42889;51.112;13.772;2022-11-24T05:30:41;98474.47;;;-1.41;100.00
39197;BME280;42889;51.112;13.772;2022-11-24T05:33:13;98474.41;;;-1.26;100.00
39197;BME280;42889;51.112;13.772;2022-11-24T05:35:45;98472.63;;;-1.26;100.00
39197;BME280;42889;51.112;13.772;2022-11-24T05:38:12;98476.75;;;-1.22;100.00
39197;BME280;42889;51.112;13.772;2022-11-24T05:40:39;98474.03;;;-1.20;100.00
39197;BME280;42889;51.112;13.772;2022-11-24T05:43:14;98473.66;;;-1.28;100.00
39197;BME280;42889;51.112;13.772;2022-11-24T05:45:41;98476.31;;;-1.28;100.00
39197;BME280;42889;51.112;13.772;2022-11-24T05:48:13;98477.16;;;-1.28;100.00
39197;BME280;42889;51.112;13.772;2022-11-24T05:50:41;98473.19;;;-1.21;100.00
39197;BME280;42889;51.112;13.772;2022-11-24T05:53:10;98472.66;;;-1.13;100.00
39197;BME280;42889;51.112;13.772;2022-11-24T05:55:39;98483.66;;;-0.94;100.00
39197;BME280;42889;51.112;13.772;2022-11-24T05:58:07;98489.44;;;-1.14;100.00
39197;BME280;42889;51.112;13.772;2022-11-24T06:00:35;98494.19;;;-1.19;100.00
39197;BME280;42889;51.112;13.772;2022-11-24T06:03:02;98490.00;;;-1.09;100.00
39197;BME280;42889;51.112;13.772;2022-11-24T06:05:29;98499.84;;;-0.98;100.00
39197;BME280;42889;51.112;13.772;2022-11-24T06:07:58;98500.88;;;-1.01;100.00
39197;BME280;42889;51.112;13.772;2022-11-24T06:10:25;98496.44;;;-1.00;100.00
39197;BME280;42889;51.112;13.772;2022-11-24T06:12:52;98511.41;;;-1.14;100.00
39197;BME280;42889;51.112;13.772;2022-11-24T06:15:19;98508.47;;;-1.09;100.00
39197;BME280;42889;51.112;13.772;2022-11-24T06:17:53;98512.78;;;-1.21;100.00
39197;BME280;42889;51.112;13.772;2022-11-24T06:20:22;98520.28;;;-1.15;100.00
39197;BME280;42889;51.112;13.772;2022-11-24T06:22:58;98522.59;;;-1.10;100.00
39197;BME280;42889;51.112;13.772;2022-11-24T06:25:26;98522.53;;;-0.96;100.00
39197;BME280;42889;51.112;13.772;2022-11-24T06:27:52;98525.41;;;-0.99;100.00
39197;BME280;42889;51.112;13.772;2022-11-24T06:30:21;98528.44;;;-1.05;100.00
39197;BME280;42889;51.112;13.772;2022-11-24T06:32:58;98534.19;;;-0.98;100.00
39197;BME280;42889;51.112;13.772;2022-11-24T06:35:24;98527.34;;;-0.75;100.00
39197;BME280;42889;51.112;13.772;2022-11-24T06:37:53;98531.84;;;-0.90;100.00
39197;BME280;42889;51.112;13.772;2022-11-24T06:40:20;98524.78;;;-0.77;100.00
39197;BME280;42889;51.112;13.772;2022-11-24T06:42:50;98524.91;;;-0.78;100.00
39197;BME280;42889;51.112;13.772;2022-11-24T06:45:17;98541.03;;;-0.43;100.00
39197;BME280;42889;51.112;13.772;2022-11-24T06:47:48;98547.47;;;-0.47;100.00
39197;BME280;42889;51.112;13.772;2022-11-24T06:50:15;98547.25;;;-0.44;100.00
39197;BME280;42889;51.112;13.772;2022-11-24T06:52:43;98541.88;;;-0.17;100.00
39197;BME280;42889;51.112;13.772;2022-11-24T06:55:12;98551.28;;;-0.13;100.00
39197;BME280;42889;51.112;13.772;2022-11-24T06:57:39;98552.44;;;-0.17;100.00
39197;BME280;42889;51.112;13.772;2022-11-24T07:00:07;98549.28;;;-0.22;100.00
39197;BME280;42889;51.112;13.772;2022-11-24T07:02:34;98555.63;;;0.01;100.00
39197;BME280;42889;51.112;13.772;2022-11-24T07:05:06;98557.72;;;-0.17;100.00
39197;BME280;42889;51.112;13.772;2022-11-24T07:07:33;98559.13;;;-0.24;100.00
39197;BME280;42889;51.112;13.772;2022-11-24T07:10:00;98564.94;;;-0.19;100.00
39197;BME280;42889;51.112;13.772;2022-11-24T07:12:26;98568.41;;;-0.06;100.00
39197;BME280;42889;51.112;13.772;2022-11-24T07:14:55;98570.53;;;0.14;100.00
39197;BME280;42889;51.112;13.772;2022-11-24T07:17:24;98571.28;;;0.04;100.00
39197;BME280;42889;51.112;13.772;2022-11-24T07:19:51;98569.69;;;0.14;100.00
39197;BME280;42889;51.112;13.772;2022-11-24T07:22:20;98574.81;;;0.41;100.00
39197;BME280;42889;51.112;13.772;2022-11-24T07:24:47;98577.59;;;0.26;100.00
39197;BME280;42889;51.112;13.772;2022-11-24T07:27:16;98577.69;;;0.38;100.00
39197;BME280;42889;51.112;13.772;2022-11-24T07:29:42;98573.91;;;0.29;100.00
39197;BME280;42889;51.112;13.772;2022-11-24T07:32:09;98576.06;;;0.48;100.00
39197;BME280;42889;51.112;13.772;2022-11-24T07:34:36;98582.44;;;0.45;100.00
39197;BME280;42889;51.112;13.772;2022-11-24T07:37:03;98579.88;;;0.57;100.00
39197;BME280;42889;51.112;13.772;2022-11-24T07:39:29;98587.72;;;0.82;100.00
39197;BME280;42889;51.112;13.772;2022-11-24T07:41:59;98592.94;;;0.84;100.00
39197;BME280;42889;51.112;13.772;2022-11-24T07:44:26;98591.00;;;1.10;100.00
39197;BME280;42889;51.112;13.772;2022-11-24T07:46:53;98597.91;;;1.12;100.00
39197;BME280;42889;51.112;13.772;2022-11-24T07:49:19;98599.13;;;1.43;100.00
39197;BME280;42889;51.112;13.772;2022-11-24T07:51:46;98604.53;;;1.66;100.00
39197;BME280;42889;51.112;13.772;2022-11-24T07:54:14;98600.25;;;1.98;100.00
39197;BME280;42889;51.112;13.772;2022-11-24T07:56:40;98600.78;;;2.26;100.00
39197;BME280;42889;51.112;13.772;2022-11-24T07:59:07;98603.03;;;2.42;100.00
39197;BME280;42889;51.112;13.772;2022-11-24T08:01:34;98592.06;;;2.46;100.00
39197;BME280;42889;51.112;13.772;2022-11-24T08:04:01;98598.34;;;2.45;100.00
39197;BME280;42889;51.112;13.772;2022-11-24T08:06:28;98599.81;;;2.49;100.00
39197;BME280;42889;51.112;13.772;2022-11-24T08:09:05;98604.84;;;2.41;100.00
39197;BME280;42889;51.112;13.772;2022-11-24T08:11:37;98601.25;;;2.53;100.00
39197;BME280;42889;51.112;13.772;2022-11-24T08:14:48;98604.97;;;2.62;100.00
39197;BME280;42889;51.112;13.772;2022-11-24T08:17:18;98597.81;;;2.85;100.00
39197;BME280;42889;51.112;13.772;2022-11-24T08:19:45;98602.53;;;2.93;100.00
39197;BME280;42889;51.112;13.772;2022-11-24T08:22:15;98601.53;;;3.05;100.00
39197;BME280;42889;51.112;13.772;2022-11-24T08:25:02;98602.91;;;2.88;100.00
39197;BME280;42889;51.112;13.772;2022-11-24T08:27:32;98608.66;;;3.04;100.00
39197;BME280;42889;51.112;13.772;2022-11-24T08:30:05;98602.50;;;3.04;100.00
39197;BME280;42889;51.112;13.772;2022-11-24T08:32:39;98605.16;;;3.04;100.00
39197;BME280;42889;51.112;13.772;2022-11-24T08:35:06;98607.09;;;3.02;100.00
39197;BME280;42889;51.112;13.772;2022-11-24T08:37:39;98608.50;;;3.17;100.00
39197;BME280;42889;51.112;13.772;2022-11-24T08:40:06;98610.22;;;3.07;100.00
39197;BME280;42889;51.112;13.772;2022-11-24T08:42:33;98606.44;;;3.21;100.00
39197;BME280;42889;51.112;13.772;2022-11-24T08:45:00;98612.75;;;3.20;100.00
39197;BME280;42889;51.112;13.772;2022-11-24T08:47:50;98610.50;;;3.36;100.00
39197;BME280;42889;51.112;13.772;2022-11-24T08:50:17;98616.91;;;3.33;100.00
39197;BME280;42889;51.112;13.772;2022-11-24T08:52:47;98624.66;;;3.36;100.00
39197;BME280;42889;51.112;13.772;2022-11-24T08:55:20;98626.56;;;3.34;100.00
39197;BME280;42889;51.112;13.772;2022-11-24T08:57:49;98620.53;;;3.32;100.00
39197;BME280;42889;51.112;13.772;2022-11-24T09:00:16;98618.13;;;3.29;100.00
39197;BME280;42889;51.112;13.772;2022-11-24T09:02:53;98625.44;;;3.16;100.00
39197;BME280;42889;51.112;13.772;2022-11-24T09:05:20;98628.09;;;3.16;100.00
39197;BME280;42889;51.112;13.772;2022-11-24T09:08:07;98622.28;;;3.11;100.00
39197;BME280;42889;51.112;13.772;2022-11-24T09:10:34;98627.94;;;3.17;100.00
39197;BME280;42889;51.112;13.772;2022-11-24T09:13:02;98631.56;;;3.28;100.00
39197;BME280;42889;51.112;13.772;2022-11-24T09:15:29;98631.06;;;3.34;100.00
39197;BME280;42889;51.112;13.772;2022-11-24T09:17:56;98636.59;;;3.42;100.00
39197;BME280;42889;51.112;13.772;2022-11-24T09:20:22;98636.44;;;3.55;100.00
39197;BME280;42889;51.112;13.772;2022-11-24T09:22:50;98631.63;;;3.49;100.00
39197;BME280;42889;51.112;13.772;2022-11-24T09:25:52;98641.91;;;3.74;100.00
39197;BME280;42889;51.112;13.772;2022-11-24T09:29:20;98638.75;;;3.80;100.00
39197;BME280;42889;51.112;13.772;2022-11-24T09:31:49;98641.25;;;3.82;100.00
39197;BME280;42889;51.112;13.772;2022-11-24T09:34:39;98637.44;;;3.75;100.00
39197;BME280;42889;51.112;13.772;2022-11-24T09:37:24;98636.09;;;3.80;100.00
39197;BME280;42889;51.112;13.772;2022-11-24T09:40:35;98637.22;;;3.66;100.00
39197;BME280;42889;51.112;13.772;2022-11-24T09:43:43;98636.69;;;3.73;100.00
39197;BME280;42889;51.112;13.772;2022-11-24T09:50:49;98642.88;;;3.73;100.00
39197;BME280;42889;51.112;13.772;2022-11-24T09:54:21;98649.44;;;3.69;100.00
39197;BME280;42889;51.112;13.772;2022-11-24T09:57:48;98645.72;;;3.60;100.00
39197;BME280;42889;51.112;13.772;2022-11-24T10:01:25;98656.16;;;3.73;100.00
39197;BME280;42889;51.112;13.772;2022-11-24T10:04:42;98652.47;;;3.64;100.00
39197;BME280;42889;51.112;13.772;2022-11-24T10:11:00;98655.13;;;3.96;100.00
39197;BME280;42889;51.112;13.772;2022-11-24T10:27:18;98650.94;;;4.45;100.00
39197;BME280;42889;51.112;13.772;2022-11-24T10:30:27;98650.97;;;4.55;100.00
39197;BME280;42889;51.112;13.772;2022-11-24T10:33:53;98663.16;;;4.79;100.00
39197;BME280;42889;51.112;13.772;2022-11-24T10:37:17;98652.66;;;4.87;100.00
39197;BME280;42889;51.112;13.772;2022-11-24T10:40:37;98661.78;;;4.84;100.00
39197;BME280;42889;51.112;13.772;2022-11-24T10:47:20;98657.19;;;4.65;100.00
39197;BME280;42889;51.112;13.772;2022-11-24T10:59:58;98652.25;;;4.61;100.00
39197;BME280;42889;51.112;13.772;2022-11-24T11:02:47;98659.94;;;4.54;100.00
39197;BME280;42889;51.112;13.772;2022-11-24T11:10:20;98656.59;;;4.31;100.00
39197;BME280;42889;51.112;13.772;2022-11-24T11:12:47;98657.13;;;4.25;100.00
39197;BME280;42889;51.112;13.772;2022-11-24T11:15:29;98652.31;;;4.19;100.00
39197;BME280;42889;51.112;13.772;2022-11-24T11:18:01;98664.88;;;4.07;100.00
39197;BME280;42889;51.112;13.772;2022-11-24T11:20:53;98658.56;;;4.08;100.00
39197;BME280;42889;51.112;13.772;2022-11-24T11:23:35;98657.25;;;4.03;100.00
39197;BME280;42889;51.112;13.772;2022-11-24T11:26:35;98657.81;;;4.27;100.00
39197;BME280;42889;51.112;13.772;2022-11-24T11:35:52;98647.47;;;4.85;100.00
39197;BME280;42889;51.112;13.772;2022-11-24T11:38:37;98659.16;;;5.03;100.00
39197;BME280;42889;51.112;13.772;2022-11-24T11:41:35;98648.25;;;5.16;100.00
39197;BME280;42889;51.112;13.772;2022-11-24T11:44:38;98653.72;;;5.15;100.00
39197;BME280;42889;51.112;13.772;2022-11-24T11:47:16;98659.13;;;4.94;100.00
39197;BME280;42889;51.112;13.772;2022-11-24T11:49:59;98658.06;;;5.06;100.00
39197;BME280;42889;51.112;13.772;2022-11-24T11:56:47;98664.25;;;5.16;100.00
39197;BME280;42889;51.112;13.772;2022-11-24T11:59:59;98674.63;;;5.10;100.00
39197;BME280;42889;51.112;13.772;2022-11-24T12:03:23;98672.09;;;5.08;100.00
39197;BME280;42889;51.112;13.772;2022-11-24T12:15:56;98674.56;;;5.40;100.00
39197;BME280;42889;51.112;13.772;2022-11-24T12:25:34;98682.75;;;5.68;100.00
39197;BME280;42889;51.112;13.772;2022-11-24T12:39:50;98686.03;;;6.10;100.00
39197;BME280;42889;51.112;13.772;2022-11-24T12:43:18;98693.47;;;6.16;100.00
39197;BME280;42889;51.112;13.772;2022-11-24T12:46:13;98690.34;;;6.21;100.00
39197;BME280;42889;51.112;13.772;2022-11-24T12:52:30;98696.44;;;5.94;100.00
39197;BME280;42889;51.112;13.772;2022-11-24T12:55:03;98696.56;;;5.82;100.00
39197;BME280;42889;51.112;13.772;2022-11-24T13:08:34;98702.59;;;6.04;100.00
39197;BME280;42889;51.112;13.772;2022-11-24T13:11:40;98704.69;;;5.91;100.00
39197;BME280;42889;51.112;13.772;2022-11-24T13:14:20;98697.81;;;5.98;100.00
39197;BME280;42889;51.112;13.772;2022-11-24T13:16:49;98706.38;;;5.72;100.00
39197;BME280;42889;51.112;13.772;2022-11-24T13:19:36;98709.44;;;5.68;100.00
39197;BME280;42889;51.112;13.772;2022-11-24T13:24:35;98707.63;;;5.68;100.00
39197;BME280;42889;51.112;13.772;2022-11-24T13:44:22;98728.41;;;5.55;100.00
39197;BME280;42889;51.112;13.772;2022-11-24T13:55:57;98733.59;;;5.16;100.00
39197;BME280;42889;51.112;13.772;2022-11-24T13:58:43;98734.22;;;5.29;100.00
39197;BME280;42889;51.112;13.772;2022-11-24T14:05:01;98732.31;;;5.11;100.00
39197;BME280;42889;51.112;13.772;2022-11-24T14:07:29;98737.63;;;5.01;100.00
39197;BME280;42889;51.112;13.772;2022-11-24T14:09:57;98745.47;;;5.02;100.00
39197;BME280;42889;51.112;13.772;2022-11-24T14:12:25;98739.44;;;5.00;100.00
39197;BME280;42889;51.112;13.772;2022-11-24T14:15:24;98743.75;;;5.22;100.00
39197;BME280;42889;51.112;13.772;2022-11-24T14:17:51;98743.88;;;5.21;100.00
39197;BME280;42889;51.112;13.772;2022-11-24T14:20:33;98751.63;;;5.24;100.00
39197;BME280;42889;51.112;13.772;2022-11-24T14:22:59;98757.84;;;5.34;100.00
39197;BME280;42889;51.112;13.772;2022-11-24T14:25:55;98758.16;;;5.50;100.00
39197;BME280;42889;51.112;13.772;2022-11-24T14:28:27;98754.06;;;5.46;100.00
39197;BME280;42889;51.112;13.772;2022-11-24T14:36:38;98769.63;;;5.01;100.00
39197;BME280;42889;51.112;13.772;2022-11-24T14:39:05;98770.63;;;5.00;100.00
39197;BME280;42889;51.112;13.772;2022-11-24T14:41:32;98771.69;;;4.97;100.00
39197;BME280;42889;51.112;13.772;2022-11-24T14:44:18;98775.13;;;4.79;100.00
39197;BME280;42889;51.112;13.772;2022-11-24T14:46:46;98776.72;;;4.70;100.00
39197;BME280;42889;51.112;13.772;2022-11-24T14:49:20;98781.94;;;4.71;100.00
39197;BME280;42889;51.112;13.772;2022-11-24T14:51:54;98780.97;;;4.72;100.00
39197;BME280;42889;51.112;13.772;2022-11-24T14:54:22;98792.72;;;4.70;100.00
39197;BME280;42889;51.112;13.772;2022-11-24T14:57:04;98785.25;;;4.64;100.00
39197;BME280;42889;51.112;13.772;2022-11-24T14:59:34;98794.88;;;4.76;100.00
39197;BME280;42889;51.112;13.772;2022-11-24T15:02:02;98798.69;;;4.83;100.00
39197;BME280;42889;51.112;13.772;2022-11-24T15:04:30;98801.34;;;4.83;100.00
39197;BME280;42889;51.112;13.772;2022-11-24T15:07:24;98807.22;;;4.77;100.00
39197;BME280;42889;51.112;13.772;2022-11-24T15:09:57;98803.06;;;4.84;100.00
39197;BME280;42889;51.112;13.772;2022-11-24T15:12:58;98801.25;;;4.85;100.00
39197;BME280;42889;51.112;13.772;2022-11-24T15:16:14;98806.31;;;4.88;100.00
39197;BME280;42889;51.112;13.772;2022-11-24T15:19:14;98813.44;;;4.66;100.00
39197;BME280;42889;51.112;13.772;2022-11-24T15:24:57;98812.28;;;4.59;100.00
39197;BME280;42889;51.112;13.772;2022-11-24T15:36:30;98823.28;;;4.66;100.00
39197;BME280;42889;51.112;13.772;2022-11-24T15:39:23;98826.28;;;4.72;100.00
39197;BME280;42889;51.112;13.772;2022-11-24T15:41:53;98833.31;;;4.73;100.00
39197;BME280;42889;51.112;13.772;2022-11-24T15:44:25;98829.53;;;4.97;100.00
39197;BME280;42889;51.112;13.772;2022-11-24T15:47:12;98828.53;;;4.98;100.00
39197;BME280;42889;51.112;13.772;2022-11-24T15:49:41;98835.06;;;4.84;100.00
39197;BME280;42889;51.112;13.772;2022-11-24T15:52:08;98836.28;;;4.80;100.00
39197;BME280;42889;51.112;13.772;2022-11-24T15:54:48;98832.09;;;4.66;100.00
39197;BME280;42889;51.112;13.772;2022-11-24T15:57:32;98843.50;;;4.68;100.00
39197;BME280;42889;51.112;13.772;2022-11-24T16:00:01;98835.28;;;4.60;100.00
39197;BME280;42889;51.112;13.772;2022-11-24T16:02:42;98840.84;;;4.68;100.00